sensor_id;sensor_type;location;lat;lon;timestamp;P1;durP1;ratioP1;P2;durP2;ratioP2
79414;SDS011;68864;44.972;19.612;2023-04-15T00:02:12;15.52;;;11.80;;
79414;SDS011;68864;44.972;19.612;2023-04-15T00:04:40;11.85;;;6.45;;
79414;SDS011;68864;44.972;19.612;2023-04-15T00:07:08;10.52;;;5.28;;
79414;SDS011;68864;44.972;19.612;2023-04-15T00:09:35;13.75;;;9.15;;
79414;SDS011;68864;44.972;19.612;2023-04-15T00:12:02;14.80;;;9.68;;
79414;SDS011;68864;44.972;19.612;2023-04-15T00:14:29;13.18;;;9.00;;
79414;SDS011;68864;44.972;19.612;2023-04-15T00:16:56;19.80;;;8.30;;
79414;SDS011;68864;44.972;19.612;2023-04-15T00:19:22;13.93;;;10.18;;
79414;SDS011;68864;44.972;19.612;2023-04-15T00:21:49;12.95;;;9.20;;
79414;SDS011;68864;44.972;19.612;2023-04-15T00:24:18;14.23;;;9.57;;
79414;SDS011;68864;44.972;19.612;2023-04-15T00:26:44;11.50;;;6.50;;
79414;SDS011;68864;44.972;19.612;2023-04-15T00:29:11;10.93;;;6.68;;
79414;SDS011;68864;44.972;19.612;2023-04-15T00:31:39;11.93;;;5.68;;
79414;SDS011;68864;44.972;19.612;2023-04-15T00:34:06;16.00;;;9.18;;
79414;SDS011;68864;44.972;19.612;2023-04-15T00:36:33;16.02;;;8.82;;
79414;SDS011;68864;44.972;19.612;2023-04-15T00:39:00;14.85;;;11.95;;
79414;SDS011;68864;44.972;19.612;2023-04-15T00:41:29;13.57;;;10.55;;
79414;SDS011;68864;44.972;19.612;2023-04-15T00:43:56;13.45;;;7.13;;
79414;SDS011;68864;44.972;19.612;2023-04-15T00:46:23;10.30;;;4.43;;
79414;SDS011;68864;44.972;19.612;2023-04-15T00:48:52;11.68;;;5.32;;
79414;SDS011;68864;44.972;19.612;2023-04-15T00:51:20;11.15;;;5.35;;
79414;SDS011;68864;44.972;19.612;2023-04-15T00:53:47;13.38;;;10.23;;
79414;SDS011;68864;44.972;19.612;2023-04-15T00:56:13;13.80;;;9.07;;
79414;SDS011;68864;44.972;19.612;2023-04-15T00:58:42;16.90;;;9.02;;
79414;SDS011;68864;44.972;19.612;2023-04-15T01:01:09;10.90;;;7.55;;
79414;SDS011;68864;44.972;19.612;2023-04-15T01:03:35;10.98;;;5.82;;
79414;SDS011;68864;44.972;19.612;2023-04-15T01:06:02;12.93;;;8.70;;
79414;SDS011;68864;44.972;19.612;2023-04-15T01:08:29;13.77;;;11.05;;
79414;SDS011;68864;44.972;19.612;2023-04-15T01:10:57;10.45;;;5.15;;
79414;SDS011;68864;44.972;19.612;2023-04-15T01:13:27;14.88;;;9.20;;
79414;SDS011;68864;44.972;19.612;2023-04-15T01:15:57;18.25;;;11.63;;
79414;SDS011;68864;44.972;19.612;2023-04-15T01:18:23;14.43;;;9.23;;
79414;SDS011;68864;44.972;19.612;2023-04-15T01:20:51;16.40;;;9.88;;
79414;SDS011;68864;44.972;19.612;2023-04-15T01:23:18;12.90;;;8.95;;
79414;SDS011;68864;44.972;19.612;2023-04-15T01:25:47;12.48;;;8.38;;
79414;SDS011;68864;44.972;19.612;2023-04-15T01:28:14;10.07;;;4.90;;
79414;SDS011;68864;44.972;19.612;2023-04-15T01:30:41;12.65;;;9.20;;
79414;SDS011;68864;44.972;19.612;2023-04-15T01:33:08;13.10;;;6.90;;
79414;SDS011;68864;44.972;19.612;2023-04-15T01:35:35;10.00;;;7.78;;
79414;SDS011;68864;44.972;19.612;2023-04-15T01:38:03;9.52;;;6.93;;
79414;SDS011;68864;44.972;19.612;2023-04-15T01:40:33;11.65;;;4.00;;
79414;SDS011;68864;44.972;19.612;2023-04-15T01:43:02;8.05;;;4.80;;
79414;SDS011;68864;44.972;19.612;2023-04-15T01:45:29;8.98;;;4.50;;
79414;SDS011;68864;44.972;19.612;2023-04-15T01:47:55;11.88;;;10.25;;
79414;SDS011;68864;44.972;19.612;2023-04-15T01:50:22;9.93;;;7.10;;
79414;SDS011;68864;44.972;19.612;2023-04-15T01:52:49;12.65;;;9.00;;
79414;SDS011;68864;44.972;19.612;2023-04-15T01:55:16;11.32;;;6.57;;
79414;SDS011;68864;44.972;19.612;2023-04-15T01:57:43;9.70;;;7.53;;
79414;SDS011;68864;44.972;19.612;2023-04-15T02:00:12;14.25;;;8.25;;
79414;SDS011;68864;44.972;19.612;2023-04-15T02:02:39;10.45;;;6.93;;
79414;SDS011;68864;44.972;19.612;2023-04-15T02:05:06;11.85;;;7.63;;
79414;SDS011;68864;44.972;19.612;2023-04-15T02:07:33;11.35;;;8.30;;
79414;SDS011;68864;44.972;19.612;2023-04-15T02:10:00;13.75;;;10.70;;
79414;SDS011;68864;44.972;19.612;2023-04-15T02:12:28;12.27;;;10.15;;
79414;SDS011;68864;44.972;19.612;2023-04-15T02:14:55;11.43;;;7.78;;
79414;SDS011;68864;44.972;19.612;2023-04-15T02:17:23;10.95;;;4.45;;
79414;SDS011;68864;44.972;19.612;2023-04-15T02:19:50;9.30;;;3.72;;
79414;SDS011;68864;44.972;19.612;2023-04-15T02:22:16;9.88;;;7.00;;
79414;SDS011;68864;44.972;19.612;2023-04-15T02:24:43;10.82;;;7.50;;
79414;SDS011;68864;44.972;19.612;2023-04-15T02:27:14;9.70;;;5.32;;
79414;SDS011;68864;44.972;19.612;2023-04-15T02:29:42;11.60;;;7.90;;
79414;SDS011;68864;44.972;19.612;2023-04-15T02:32:08;11.60;;;7.95;;
79414;SDS011;68864;44.972;19.612;2023-04-15T02:34:37;11.70;;;4.95;;
79414;SDS011;68864;44.972;19.612;2023-04-15T02:37:05;11.18;;;5.82;;
79414;SDS011;68864;44.972;19.612;2023-04-15T02:39:32;12.50;;;8.68;;
79414;SDS011;68864;44.972;19.612;2023-04-15T02:41:59;8.35;;;4.00;;
79414;SDS011;68864;44.972;19.612;2023-04-15T02:46:53;9.35;;;3.05;;
79414;SDS011;68864;44.972;19.612;2023-04-15T02:49:20;8.23;;;3.00;;
79414;SDS011;68864;44.972;19.612;2023-04-15T02:51:48;11.25;;;9.23;;
79414;SDS011;68864;44.972;19.612;2023-04-15T02:54:15;8.98;;;6.50;;
79414;SDS011;68864;44.972;19.612;2023-04-15T02:56:42;10.40;;;7.80;;
79414;SDS011;68864;44.972;19.612;2023-04-15T02:59:08;13.45;;;12.02;;
79414;SDS011;68864;44.972;19.612;2023-04-15T03:01:36;9.85;;;8.82;;
79414;SDS011;68864;44.972;19.612;2023-04-15T03:04:03;7.88;;;7.05;;
79414;SDS011;68864;44.972;19.612;2023-04-15T03:06:30;6.93;;;3.58;;
79414;SDS011;68864;44.972;19.612;2023-04-15T03:08:58;11.65;;;8.57;;
79414;SDS011;68864;44.972;19.612;2023-04-15T03:11:28;17.80;;;8.75;;
79414;SDS011;68864;44.972;19.612;2023-04-15T03:13:55;10.07;;;7.30;;
79414;SDS011;68864;44.972;19.612;2023-04-15T03:16:22;7.53;;;3.63;;
79414;SDS011;68864;44.972;19.612;2023-04-15T03:18:49;9.57;;;7.95;;
79414;SDS011;68864;44.972;19.612;2023-04-15T03:21:16;14.27;;;5.10;;
79414;SDS011;68864;44.972;19.612;2023-04-15T03:23:44;12.65;;;5.72;;
79414;SDS011;68864;44.972;19.612;2023-04-15T03:26:12;13.95;;;10.05;;
79414;SDS011;68864;44.972;19.612;2023-04-15T03:28:49;15.55;;;10.05;;
79414;SDS011;68864;44.972;19.612;2023-04-15T03:31:16;11.38;;;5.05;;
79414;SDS011;68864;44.972;19.612;2023-04-15T03:33:43;16.90;;;10.63;;
79414;SDS011;68864;44.972;19.612;2023-04-15T03:36:09;14.30;;;8.07;;
79414;SDS011;68864;44.972;19.612;2023-04-15T03:38:36;9.80;;;5.82;;
79414;SDS011;68864;44.972;19.612;2023-04-15T03:41:03;12.23;;;8.02;;
79414;SDS011;68864;44.972;19.612;2023-04-15T03:43:31;13.05;;;6.18;;
79414;SDS011;68864;44.972;19.612;2023-04-15T03:45:58;13.10;;;8.20;;
79414;SDS011;68864;44.972;19.612;2023-04-15T03:48:25;18.27;;;14.50;;
79414;SDS011;68864;44.972;19.612;2023-04-15T03:50:51;19.17;;;12.20;;
79414;SDS011;68864;44.972;19.612;2023-04-15T03:53:20;21.63;;;11.27;;
79414;SDS011;68864;44.972;19.612;2023-04-15T03:55:47;15.38;;;9.13;;
79414;SDS011;68864;44.972;19.612;2023-04-15T03:58:13;18.83;;;12.80;;
79414;SDS011;68864;44.972;19.612;2023-04-15T04:00:41;17.27;;;11.38;;
79414;SDS011;68864;44.972;19.612;2023-04-15T04:03:08;20.30;;;14.07;;
79414;SDS011;68864;44.972;19.612;2023-04-15T04:05:35;20.98;;;14.30;;
79414;SDS011;68864;44.972;19.612;2023-04-15T04:08:03;20.35;;;9.55;;
79414;SDS011;68864;44.972;19.612;2023-04-15T04:10:30;16.10;;;12.43;;
79414;SDS011;68864;44.972;19.612;2023-04-15T04:12:56;15.82;;;11.77;;
79414;SDS011;68864;44.972;19.612;2023-04-15T04:15:23;17.10;;;12.07;;
79414;SDS011;68864;44.972;19.612;2023-04-15T04:17:51;15.63;;;9.13;;
79414;SDS011;68864;44.972;19.612;2023-04-15T04:20:18;16.85;;;10.45;;
79414;SDS011;68864;44.972;19.612;2023-04-15T04:22:45;20.85;;;14.32;;
79414;SDS011;68864;44.972;19.612;2023-04-15T04:25:12;21.20;;;11.85;;
79414;SDS011;68864;44.972;19.612;2023-04-15T04:27:38;16.38;;;9.95;;
79414;SDS011;68864;44.972;19.612;2023-04-15T04:30:05;22.33;;;15.18;;
79414;SDS011;68864;44.972;19.612;2023-04-15T04:32:33;23.20;;;13.90;;
79414;SDS011;68864;44.972;19.612;2023-04-15T04:35:01;18.65;;;11.45;;
79414;SDS011;68864;44.972;19.612;2023-04-15T04:37:28;26.90;;;17.23;;
79414;SDS011;68864;44.972;19.612;2023-04-15T04:39:55;20.95;;;11.30;;
79414;SDS011;68864;44.972;19.612;2023-04-15T04:42:21;26.35;;;16.13;;
79414;SDS011;68864;44.972;19.612;2023-04-15T04:44:48;21.75;;;16.92;;
79414;SDS011;68864;44.972;19.612;2023-04-15T04:47:15;22.27;;;16.10;;
79414;SDS011;68864;44.972;19.612;2023-04-15T04:49:42;22.15;;;17.55;;
79414;SDS011;68864;44.972;19.612;2023-04-15T04:52:10;21.85;;;15.63;;
79414;SDS011;68864;44.972;19.612;2023-04-15T04:54:37;20.23;;;12.77;;
79414;SDS011;68864;44.972;19.612;2023-04-15T04:57:04;23.73;;;18.67;;
79414;SDS011;68864;44.972;19.612;2023-04-15T04:59:32;21.98;;;16.88;;
79414;SDS011;68864;44.972;19.612;2023-04-15T05:01:58;22.80;;;15.23;;
79414;SDS011;68864;44.972;19.612;2023-04-15T05:04:25;27.65;;;17.63;;
79414;SDS011;68864;44.972;19.612;2023-04-15T05:06:52;19.60;;;13.52;;
79414;SDS011;68864;44.972;19.612;2023-04-15T05:09:20;17.00;;;12.88;;
79414;SDS011;68864;44.972;19.612;2023-04-15T05:11:47;21.17;;;14.00;;
79414;SDS011;68864;44.972;19.612;2023-04-15T05:14:13;20.88;;;14.90;;
79414;SDS011;68864;44.972;19.612;2023-04-15T05:16:40;19.42;;;14.23;;
79414;SDS011;68864;44.972;19.612;2023-04-15T05:19:07;21.13;;;16.15;;
79414;SDS011;68864;44.972;19.612;2023-04-15T05:21:34;19.73;;;14.15;;
79414;SDS011;68864;44.972;19.612;2023-04-15T05:24:00;24.85;;;15.48;;
79414;SDS011;68864;44.972;19.612;2023-04-15T05:26:28;25.33;;;15.10;;
79414;SDS011;68864;44.972;19.612;2023-04-15T05:28:55;18.98;;;10.82;;
79414;SDS011;68864;44.972;19.612;2023-04-15T05:31:22;24.33;;;14.93;;
79414;SDS011;68864;44.972;19.612;2023-04-15T05:33:49;27.35;;;13.95;;
79414;SDS011;68864;44.972;19.612;2023-04-15T05:36:16;17.23;;;9.63;;
79414;SDS011;68864;44.972;19.612;2023-04-15T05:38:43;24.52;;;15.23;;
79414;SDS011;68864;44.972;19.612;2023-04-15T05:41:10;17.80;;;12.13;;
79414;SDS011;68864;44.972;19.612;2023-04-15T05:43:38;18.27;;;13.50;;
79414;SDS011;68864;44.972;19.612;2023-04-15T05:46:05;16.85;;;12.35;;
79414;SDS011;68864;44.972;19.612;2023-04-15T05:48:32;17.83;;;14.40;;
79414;SDS011;68864;44.972;19.612;2023-04-15T05:50:59;16.23;;;10.00;;
79414;SDS011;68864;44.972;19.612;2023-04-15T05:53:26;17.02;;;9.38;;
79414;SDS011;68864;44.972;19.612;2023-04-15T05:55:53;22.70;;;15.27;;
79414;SDS011;68864;44.972;19.612;2023-04-15T05:58:19;26.23;;;15.93;;
79414;SDS011;68864;44.972;19.612;2023-04-15T06:00:48;22.02;;;17.88;;
79414;SDS011;68864;44.972;19.612;2023-04-15T06:03:15;20.08;;;13.77;;
79414;SDS011;68864;44.972;19.612;2023-04-15T06:05:42;19.38;;;9.00;;
79414;SDS011;68864;44.972;19.612;2023-04-15T06:10:36;21.02;;;8.48;;
79414;SDS011;68864;44.972;19.612;2023-04-15T06:13:03;15.27;;;8.68;;
79414;SDS011;68864;44.972;19.612;2023-04-15T06:15:30;12.65;;;10.00;;
79414;SDS011;68864;44.972;19.612;2023-04-15T06:17:58;15.77;;;8.27;;
79414;SDS011;68864;44.972;19.612;2023-04-15T06:20:25;14.70;;;10.95;;
79414;SDS011;68864;44.972;19.612;2023-04-15T06:22:52;18.45;;;10.63;;
79414;SDS011;68864;44.972;19.612;2023-04-15T06:25:18;15.27;;;9.07;;
79414;SDS011;68864;44.972;19.612;2023-04-15T06:27:45;12.52;;;9.10;;
79414;SDS011;68864;44.972;19.612;2023-04-15T06:30:12;13.50;;;8.57;;
79414;SDS011;68864;44.972;19.612;2023-04-15T06:32:39;13.27;;;8.05;;
79414;SDS011;68864;44.972;19.612;2023-04-15T06:35:07;12.48;;;9.32;;
79414;SDS011;68864;44.972;19.612;2023-04-15T06:37:34;11.55;;;9.38;;
79414;SDS011;68864;44.972;19.612;2023-04-15T06:40:01;15.25;;;10.13;;
79414;SDS011;68864;44.972;19.612;2023-04-15T06:42:29;13.25;;;9.55;;
79414;SDS011;68864;44.972;19.612;2023-04-15T06:44:56;14.05;;;9.07;;
79414;SDS011;68864;44.972;19.612;2023-04-15T06:47:22;11.15;;;6.10;;
79414;SDS011;68864;44.972;19.612;2023-04-15T06:49:49;14.65;;;10.63;;
79414;SDS011;68864;44.972;19.612;2023-04-15T06:52:17;12.95;;;8.20;;
79414;SDS011;68864;44.972;19.612;2023-04-15T06:54:44;18.20;;;10.45;;
79414;SDS011;68864;44.972;19.612;2023-04-15T06:57:11;10.40;;;9.10;;
79414;SDS011;68864;44.972;19.612;2023-04-15T06:59:37;12.88;;;9.00;;
79414;SDS011;68864;44.972;19.612;2023-04-15T07:02:04;14.80;;;9.77;;
79414;SDS011;68864;44.972;19.612;2023-04-15T07:04:34;8.38;;;4.18;;
79414;SDS011;68864;44.972;19.612;2023-04-15T07:07:00;10.45;;;4.57;;
79414;SDS011;68864;44.972;19.612;2023-04-15T07:09:29;16.02;;;9.18;;
79414;SDS011;68864;44.972;19.612;2023-04-15T07:11:58;6.93;;;3.55;;
79414;SDS011;68864;44.972;19.612;2023-04-15T07:14:24;9.05;;;2.45;;
79414;SDS011;68864;44.972;19.612;2023-04-15T07:16:51;14.35;;;7.55;;
79414;SDS011;68864;44.972;19.612;2023-04-15T07:19:18;13.75;;;7.43;;
79414;SDS011;68864;44.972;19.612;2023-04-15T07:24:12;7.20;;;3.75;;
79414;SDS011;68864;44.972;19.612;2023-04-15T07:26:43;8.52;;;6.45;;
79414;SDS011;68864;44.972;19.612;2023-04-15T07:29:10;7.47;;;2.85;;
79414;SDS011;68864;44.972;19.612;2023-04-15T07:31:38;4.82;;;1.40;;
79414;SDS011;68864;44.972;19.612;2023-04-15T07:34:05;9.95;;;6.22;;
79414;SDS011;68864;44.972;19.612;2023-04-15T07:36:32;9.45;;;3.20;;
79414;SDS011;68864;44.972;19.612;2023-04-15T07:38:59;7.43;;;6.68;;
79414;SDS011;68864;44.972;19.612;2023-04-15T07:41:28;10.07;;;8.98;;
79414;SDS011;68864;44.972;19.612;2023-04-15T07:43:56;5.65;;;2.45;;
79414;SDS011;68864;44.972;19.612;2023-04-15T07:46:23;5.47;;;1.55;;
79414;SDS011;68864;44.972;19.612;2023-04-15T07:48:51;5.72;;;1.98;;
79414;SDS011;68864;44.972;19.612;2023-04-15T07:51:18;10.93;;;4.90;;
79414;SDS011;68864;44.972;19.612;2023-04-15T07:53:46;20.55;;;14.82;;
79414;SDS011;68864;44.972;19.612;2023-04-15T07:56:13;5.50;;;2.13;;
79414;SDS011;68864;44.972;19.612;2023-04-15T07:58:40;5.53;;;1.98;;
79414;SDS011;68864;44.972;19.612;2023-04-15T08:01:08;7.45;;;6.65;;
79414;SDS011;68864;44.972;19.612;2023-04-15T08:03:35;6.20;;;5.32;;
79414;SDS011;68864;44.972;19.612;2023-04-15T08:06:02;5.18;;;0.93;;
79414;SDS011;68864;44.972;19.612;2023-04-15T08:08:29;7.60;;;2.20;;
79414;SDS011;68864;44.972;19.612;2023-04-15T08:10:57;7.18;;;1.60;;
79414;SDS011;68864;44.972;19.612;2023-04-15T08:13:24;4.28;;;2.25;;
79414;SDS011;68864;44.972;19.612;2023-04-15T08:15:52;5.90;;;4.57;;
79414;SDS011;68864;44.972;19.612;2023-04-15T08:18:41;6.70;;;2.08;;
79414;SDS011;68864;44.972;19.612;2023-04-15T08:21:08;5.45;;;4.10;;
79414;SDS011;68864;44.972;19.612;2023-04-15T08:23:35;7.30;;;3.83;;
79414;SDS011;68864;44.972;19.612;2023-04-15T08:26:03;6.85;;;6.25;;
79414;SDS011;68864;44.972;19.612;2023-04-15T08:28:30;6.50;;;1.88;;
79414;SDS011;68864;44.972;19.612;2023-04-15T08:30:56;3.13;;;0.52;;
79414;SDS011;68864;44.972;19.612;2023-04-15T08:35:51;7.43;;;2.55;;
79414;SDS011;68864;44.972;19.612;2023-04-15T08:38:18;6.30;;;3.05;;
79414;SDS011;68864;44.972;19.612;2023-04-15T08:40:45;4.40;;;0.98;;
79414;SDS011;68864;44.972;19.612;2023-04-15T08:43:12;7.10;;;1.80;;
79414;SDS011;68864;44.972;19.612;2023-04-15T08:45:43;4.47;;;1.38;;
79414;SDS011;68864;44.972;19.612;2023-04-15T08:48:13;5.18;;;2.42;;
79414;SDS011;68864;44.972;19.612;2023-04-15T08:50:43;4.45;;;1.17;;
79414;SDS011;68864;44.972;19.612;2023-04-15T08:53:10;7.18;;;3.72;;
79414;SDS011;68864;44.972;19.612;2023-04-15T08:55:38;5.80;;;1.80;;
79414;SDS011;68864;44.972;19.612;2023-04-15T08:58:10;3.13;;;0.95;;
79414;SDS011;68864;44.972;19.612;2023-04-15T09:00:37;3.05;;;1.52;;
79414;SDS011;68864;44.972;19.612;2023-04-15T09:03:04;2.63;;;1.23;;
79414;SDS011;68864;44.972;19.612;2023-04-15T09:05:32;3.50;;;1.25;;
79414;SDS011;68864;44.972;19.612;2023-04-15T09:08:00;2.00;;;0.50;;
79414;SDS011;68864;44.972;19.612;2023-04-15T09:10:27;4.05;;;1.17;;
79414;SDS011;68864;44.972;19.612;2023-04-15T09:12:55;3.95;;;2.10;;
79414;SDS011;68864;44.972;19.612;2023-04-15T09:15:22;9.88;;;2.35;;
79414;SDS011;68864;44.972;19.612;2023-04-15T09:17:51;5.57;;;1.73;;
79414;SDS011;68864;44.972;19.612;2023-04-15T09:20:18;3.78;;;1.70;;
79414;SDS011;68864;44.972;19.612;2023-04-15T09:22:46;8.68;;;5.70;;
79414;SDS011;68864;44.972;19.612;2023-04-15T09:25:25;2.95;;;0.43;;
79414;SDS011;68864;44.972;19.612;2023-04-15T09:27:54;1.88;;;0.93;;
79414;SDS011;68864;44.972;19.612;2023-04-15T09:30:22;4.47;;;3.80;;
79414;SDS011;68864;44.972;19.612;2023-04-15T09:32:49;3.97;;;3.58;;
79414;SDS011;68864;44.972;19.612;2023-04-15T09:35:16;3.72;;;0.70;;
79414;SDS011;68864;44.972;19.612;2023-04-15T09:37:43;3.45;;;0.88;;
79414;SDS011;68864;44.972;19.612;2023-04-15T09:40:11;1.77;;;0.30;;
79414;SDS011;68864;44.972;19.612;2023-04-15T09:45:31;5.70;;;1.85;;
79414;SDS011;68864;44.972;19.612;2023-04-15T09:47:58;5.30;;;0.85;;
79414;SDS011;68864;44.972;19.612;2023-04-15T09:50:40;3.20;;;0.82;;
79414;SDS011;68864;44.972;19.612;2023-04-15T09:53:08;13.38;;;4.57;;
79414;SDS011;68864;44.972;19.612;2023-04-15T09:55:35;17.80;;;8.65;;
79414;SDS011;68864;44.972;19.612;2023-04-15T10:00:35;6.85;;;2.53;;
79414;SDS011;68864;44.972;19.612;2023-04-15T10:03:02;13.15;;;10.43;;
79414;SDS011;68864;44.972;19.612;2023-04-15T10:05:31;6.43;;;2.75;;
79414;SDS011;68864;44.972;19.612;2023-04-15T10:07:59;1.95;;;0.30;;
79414;SDS011;68864;44.972;19.612;2023-04-15T10:10:28;2.58;;;0.38;;
79414;SDS011;68864;44.972;19.612;2023-04-15T10:12:57;5.97;;;3.03;;
79414;SDS011;68864;44.972;19.612;2023-04-15T10:15:24;9.20;;;8.15;;
79414;SDS011;68864;44.972;19.612;2023-04-15T10:17:55;3.40;;;1.45;;
79414;SDS011;68864;44.972;19.612;2023-04-15T10:20:23;4.85;;;2.50;;
79414;SDS011;68864;44.972;19.612;2023-04-15T10:22:50;5.82;;;3.83;;
79414;SDS011;68864;44.972;19.612;2023-04-15T10:25:18;7.75;;;6.38;;
79414;SDS011;68864;44.972;19.612;2023-04-15T10:27:46;6.55;;;1.58;;
79414;SDS011;68864;44.972;19.612;2023-04-15T10:30:13;3.53;;;1.10;;
79414;SDS011;68864;44.972;19.612;2023-04-15T10:32:41;8.90;;;4.82;;
79414;SDS011;68864;44.972;19.612;2023-04-15T10:35:10;5.78;;;4.45;;
79414;SDS011;68864;44.972;19.612;2023-04-15T10:37:37;5.30;;;3.83;;
79414;SDS011;68864;44.972;19.612;2023-04-15T10:42:49;2.22;;;0.93;;
79414;SDS011;68864;44.972;19.612;2023-04-15T10:45:17;2.70;;;2.00;;
79414;SDS011;68864;44.972;19.612;2023-04-15T10:47:44;3.00;;;1.42;;
79414;SDS011;68864;44.972;19.612;2023-04-15T10:50:12;7.53;;;6.78;;
79414;SDS011;68864;44.972;19.612;2023-04-15T10:52:39;3.47;;;2.20;;
79414;SDS011;68864;44.972;19.612;2023-04-15T10:55:11;3.05;;;1.77;;
79414;SDS011;68864;44.972;19.612;2023-04-15T10:57:40;2.38;;;0.30;;
79414;SDS011;68864;44.972;19.612;2023-04-15T11:00:11;3.75;;;1.20;;
79414;SDS011;68864;44.972;19.612;2023-04-15T11:02:40;2.63;;;0.75;;
79414;SDS011;68864;44.972;19.612;2023-04-15T11:05:08;2.45;;;0.75;;
79414;SDS011;68864;44.972;19.612;2023-04-15T11:07:38;3.58;;;2.33;;
79414;SDS011;68864;44.972;19.612;2023-04-15T11:13:15;2.72;;;2.35;;
79414;SDS011;68864;44.972;19.612;2023-04-15T11:15:44;3.55;;;1.75;;
79414;SDS011;68864;44.972;19.612;2023-04-15T11:18:13;3.33;;;0.85;;
79414;SDS011;68864;44.972;19.612;2023-04-15T11:20:42;3.45;;;1.80;;
79414;SDS011;68864;44.972;19.612;2023-04-15T11:23:11;2.55;;;0.68;;
79414;SDS011;68864;44.972;19.612;2023-04-15T11:25:38;4.03;;;1.38;;
79414;SDS011;68864;44.972;19.612;2023-04-15T11:30:33;8.07;;;2.03;;
79414;SDS011;68864;44.972;19.612;2023-04-15T11:33:01;4.88;;;3.17;;
79414;SDS011;68864;44.972;19.612;2023-04-15T11:35:30;5.30;;;1.05;;
79414;SDS011;68864;44.972;19.612;2023-04-15T11:40:26;3.60;;;2.15;;
79414;SDS011;68864;44.972;19.612;2023-04-15T11:43:02;5.93;;;1.45;;
79414;SDS011;68864;44.972;19.612;2023-04-15T11:45:30;5.43;;;2.20;;
79414;SDS011;68864;44.972;19.612;2023-04-15T11:48:03;11.05;;;4.45;;
79414;SDS011;68864;44.972;19.612;2023-04-15T11:50:32;11.27;;;7.43;;
79414;SDS011;68864;44.972;19.612;2023-04-15T11:53:00;3.00;;;0.73;;
79414;SDS011;68864;44.972;19.612;2023-04-15T11:55:30;6.20;;;4.70;;
79414;SDS011;68864;44.972;19.612;2023-04-15T11:58:09;5.93;;;5.32;;
79414;SDS011;68864;44.972;19.612;2023-04-15T12:00:37;3.30;;;3.00;;
79414;SDS011;68864;44.972;19.612;2023-04-15T12:03:11;3.05;;;1.10;;
79414;SDS011;68864;44.972;19.612;2023-04-15T12:08:56;4.75;;;1.42;;
79414;SDS011;68864;44.972;19.612;2023-04-15T12:11:29;4.57;;;4.13;;
79414;SDS011;68864;44.972;19.612;2023-04-15T12:13:58;3.25;;;0.73;;
79414;SDS011;68864;44.972;19.612;2023-04-15T12:16:29;2.63;;;1.08;;
79414;SDS011;68864;44.972;19.612;2023-04-15T12:21:24;3.53;;;0.77;;
79414;SDS011;68864;44.972;19.612;2023-04-15T12:23:53;2.30;;;0.60;;
79414;SDS011;68864;44.972;19.612;2023-04-15T12:26:25;3.35;;;1.10;;
79414;SDS011;68864;44.972;19.612;2023-04-15T12:28:54;4.57;;;1.92;;
79414;SDS011;68864;44.972;19.612;2023-04-15T12:31:21;3.38;;;0.82;;
79414;SDS011;68864;44.972;19.612;2023-04-15T12:33:49;4.68;;;1.67;;
79414;SDS011;68864;44.972;19.612;2023-04-15T12:36:15;5.30;;;2.97;;
79414;SDS011;68864;44.972;19.612;2023-04-15T12:38:42;6.05;;;4.65;;
79414;SDS011;68864;44.972;19.612;2023-04-15T12:41:09;5.35;;;3.40;;
79414;SDS011;68864;44.972;19.612;2023-04-15T12:43:36;7.22;;;4.13;;
79414;SDS011;68864;44.972;19.612;2023-04-15T12:46:04;35.97;;;20.10;;
79414;SDS011;68864;44.972;19.612;2023-04-15T12:48:32;12.82;;;8.30;;
79414;SDS011;68864;44.972;19.612;2023-04-15T12:50:59;3.42;;;0.73;;
79414;SDS011;68864;44.972;19.612;2023-04-15T12:53:26;3.45;;;2.67;;
79414;SDS011;68864;44.972;19.612;2023-04-15T12:55:53;1.70;;;0.70;;
79414;SDS011;68864;44.972;19.612;2023-04-15T12:58:20;2.15;;;1.23;;
79414;SDS011;68864;44.972;19.612;2023-04-15T13:03:15;2.58;;;1.15;;
79414;SDS011;68864;44.972;19.612;2023-04-15T13:05:42;1.98;;;0.60;;
79414;SDS011;68864;44.972;19.612;2023-04-15T13:08:08;4.50;;;0.82;;
79414;SDS011;68864;44.972;19.612;2023-04-15T13:10:35;3.05;;;1.70;;
79414;SDS011;68864;44.972;19.612;2023-04-15T13:13:02;7.43;;;2.22;;
79414;SDS011;68864;44.972;19.612;2023-04-15T13:15:29;2.70;;;0.50;;
79414;SDS011;68864;44.972;19.612;2023-04-15T13:17:56;3.60;;;1.23;;
79414;SDS011;68864;44.972;19.612;2023-04-15T13:20:25;4.45;;;3.10;;
79414;SDS011;68864;44.972;19.612;2023-04-15T13:22:52;2.85;;;0.88;;
79414;SDS011;68864;44.972;19.612;2023-04-15T13:25:19;6.22;;;2.63;;
79414;SDS011;68864;44.972;19.612;2023-04-15T13:27:46;8.50;;;4.55;;
79414;SDS011;68864;44.972;19.612;2023-04-15T13:30:12;6.07;;;0.75;;
79414;SDS011;68864;44.972;19.612;2023-04-15T13:32:39;3.50;;;0.75;;
79414;SDS011;68864;44.972;19.612;2023-04-15T13:35:06;3.10;;;0.60;;
79414;SDS011;68864;44.972;19.612;2023-04-15T13:37:35;5.80;;;4.75;;
79414;SDS011;68864;44.972;19.612;2023-04-15T13:40:01;4.68;;;1.27;;
79414;SDS011;68864;44.972;19.612;2023-04-15T13:42:31;5.32;;;3.17;;
79414;SDS011;68864;44.972;19.612;2023-04-15T13:44:58;5.47;;;4.03;;
79414;SDS011;68864;44.972;19.612;2023-04-15T13:47:24;3.67;;;2.38;;
79414;SDS011;68864;44.972;19.612;2023-04-15T13:49:51;6.47;;;3.60;;
79414;SDS011;68864;44.972;19.612;2023-04-15T13:52:20;4.03;;;1.05;;
79414;SDS011;68864;44.972;19.612;2023-04-15T13:54:48;5.78;;;1.15;;
79414;SDS011;68864;44.972;19.612;2023-04-15T13:57:15;4.07;;;1.05;;
79414;SDS011;68864;44.972;19.612;2023-04-15T13:59:42;7.00;;;4.72;;
79414;SDS011;68864;44.972;19.612;2023-04-15T14:02:09;5.78;;;4.47;;
79414;SDS011;68864;44.972;19.612;2023-04-15T14:04:36;9.82;;;4.65;;
79414;SDS011;68864;44.972;19.612;2023-04-15T14:07:03;4.57;;;1.15;;
79414;SDS011;68864;44.972;19.612;2023-04-15T14:09:30;18.00;;;5.90;;
79414;SDS011;68864;44.972;19.612;2023-04-15T14:11:58;13.27;;;6.38;;
79414;SDS011;68864;44.972;19.612;2023-04-15T14:14:25;4.18;;;1.38;;
79414;SDS011;68864;44.972;19.612;2023-04-15T14:16:53;2.72;;;0.47;;
79414;SDS011;68864;44.972;19.612;2023-04-15T14:19:21;7.10;;;5.10;;
79414;SDS011;68864;44.972;19.612;2023-04-15T14:21:48;8.75;;;5.72;;
79414;SDS011;68864;44.972;19.612;2023-04-15T14:24:14;6.93;;;1.27;;
79414;SDS011;68864;44.972;19.612;2023-04-15T14:26:41;5.72;;;5.10;;
79414;SDS011;68864;44.972;19.612;2023-04-15T14:29:10;9.27;;;7.35;;
79414;SDS011;68864;44.972;19.612;2023-04-15T14:31:37;3.65;;;2.28;;
79414;SDS011;68864;44.972;19.612;2023-04-15T14:34:04;3.05;;;1.13;;
79414;SDS011;68864;44.972;19.612;2023-04-15T14:36:31;4.78;;;4.10;;
79414;SDS011;68864;44.972;19.612;2023-04-15T14:38:57;5.32;;;4.30;;
79414;SDS011;68864;44.972;19.612;2023-04-15T14:41:24;2.40;;;0.52;;
79414;SDS011;68864;44.972;19.612;2023-04-15T14:43:51;4.28;;;1.00;;
79414;SDS011;68864;44.972;19.612;2023-04-15T14:46:19;13.75;;;8.68;;
79414;SDS011;68864;44.972;19.612;2023-04-15T14:48:46;8.40;;;6.00;;
79414;SDS011;68864;44.972;19.612;2023-04-15T14:51:13;6.72;;;5.25;;
79414;SDS011;68864;44.972;19.612;2023-04-15T14:53:40;4.38;;;1.58;;
79414;SDS011;68864;44.972;19.612;2023-04-15T14:56:08;5.35;;;3.75;;
79414;SDS011;68864;44.972;19.612;2023-04-15T14:58:36;4.18;;;2.95;;
79414;SDS011;68864;44.972;19.612;2023-04-15T15:01:03;2.72;;;0.88;;
79414;SDS011;68864;44.972;19.612;2023-04-15T15:03:31;1.60;;;0.20;;